Time;durP1;ratioP1;P1;durP2;ratioP2;P2;SDS_P1;SDS_P2;PMS_P1;PMS_P2;Temp;Humidity;BMP_temperature;BMP_pressure;BME280_temperature;BME280_humidity;BME280_pressure;Samples;Min_cycle;Max_cycle;Signal;HPM_P1;HPM_P2
2022/11/01 00:00:49;;;;;;;66.57;33.80;;;;;;;13.49;100.00;100556.06;5158922;28;20532;-72
2022/11/01 00:03:19;;;;;;;64.35;34.15;;;;;;;13.48;100.00;100554.38;5158722;28;20026;-72
2022/11/01 00:05:49;;;;;;;63.90;35.17;;;;;;;13.32;100.00;100553.41;5159096;28;20026;-71
2022/11/01 00:08:19;;;;;;;70.30;36.55;;;;;;;13.33;100.00;100539.34;5158176;28;20069;-72
2022/11/01 00:10:50;;;;;;;65.85;35.25;;;;;;;13.35;100.00;100534.88;5159193;28;20022;-71
2022/11/01 00:13:20;;;;;;;68.10;36.75;;;;;;;13.20;100.00;100525.97;5159329;28;20030;-72
2022/11/01 00:15:50;;;;;;;75.85;37.72;;;;;;;13.17;100.00;100517.38;5158823;28;20473;-72
2022/11/01 00:18:20;;;;;;;73.88;37.30;;;;;;;13.25;100.00;100507.38;5157037;28;20069;-72
2022/11/01 00:20:51;;;;;;;76.97;39.85;;;;;;;13.16;100.00;100513.03;5158457;28;20034;-72
2022/11/01 00:23:21;;;;;;;76.18;40.00;;;;;;;13.08;100.00;100507.31;5158484;28;20066;-72
2022/11/01 00:25:52;;;;;;;77.35;39.28;;;;;;;13.10;100.00;100503.69;5162538;28;20024;-71
2022/11/01 00:28:22;;;;;;;77.60;38.95;;;;;;;13.10;100.00;100502.84;5162402;28;20359;-71
2022/11/01 00:30:54;;;;;;;74.55;37.95;;;;;;;13.03;100.00;100509.31;5162590;28;20029;-72
2022/11/01 00:33:25;;;;;;;72.15;37.47;;;;;;;12.91;100.00;100509.84;5162607;28;20492;-71
2022/11/01 00:35:59;;;;;;;79.22;39.53;;;;;;;12.84;100.00;100508.41;5163146;28;20169;-71
2022/11/01 00:38:30;;;;;;;70.75;36.88;;;;;;;12.86;100.00;100514.47;5161758;28;20444;-71
2022/11/01 00:41:02;;;;;;;75.95;37.78;;;;;;;12.80;100.00;100506.00;5162818;28;20034;-72
2022/11/01 00:43:34;;;;;;;72.75;37.78;;;;;;;12.88;100.00;100502.13;5162430;28;20026;-71
2022/11/01 00:46:04;;;;;;;69.32;37.20;;;;;;;12.80;100.00;100496.34;5162356;28;20109;-71
2022/11/01 00:48:35;;;;;;;69.13;35.47;;;;;;;12.79;100.00;100489.41;5161706;28;20117;-72
2022/11/01 00:51:05;;;;;;;68.40;34.92;;;;;;;12.85;100.00;100496.97;5162310;28;20125;-71
2022/11/01 00:53:35;;;;;;;58.33;32.25;;;;;;;12.78;100.00;100498.19;5162600;28;20049;-73
2022/11/01 00:56:06;;;;;;;56.63;31.10;;;;;;;12.62;100.00;100497.19;5161331;28;20026;-71
2022/11/01 00:58:36;;;;;;;55.42;30.63;;;;;;;12.70;100.00;100495.09;5159001;28;20030;-71
2022/11/01 01:01:07;;;;;;;57.70;30.48;;;;;;;12.56;100.00;100502.72;5161130;28;20037;-72
2022/11/01 01:03:37;;;;;;;52.00;30.77;;;;;;;12.63;100.00;100498.91;5162794;28;20030;-72
2022/11/01 01:06:08;;;;;;;58.05;31.92;;;;;;;12.45;100.00;100493.63;5162347;28;20089;-72
2022/11/01 01:08:38;;;;;;;61.63;34.28;;;;;;;12.42;100.00;100502.47;5162162;28;20034;-72
2022/11/01 01:11:08;;;;;;;59.25;33.45;;;;;;;12.42;100.00;100499.84;5162481;28;20081;-72
2022/11/01 01:13:38;;;;;;;58.55;32.80;;;;;;;12.33;100.00;100502.88;5162659;28;20495;-72
2022/11/01 01:16:10;;;;;;;61.33;31.92;;;;;;;12.40;100.00;100499.06;5162275;28;20038;-72
2022/11/01 01:18:40;;;;;;;66.15;34.10;;;;;;;12.35;100.00;100501.06;5161700;28;20118;-72
2022/11/01 01:21:12;;;;;;;68.95;35.45;;;;;;;12.39;100.00;100505.25;5162249;28;20113;-72
2022/11/01 01:23:43;;;;;;;59.08;33.80;;;;;;;12.48;100.00;100499.56;5162468;28;20034;-72
2022/11/01 01:26:13;;;;;;;70.85;35.67;;;;;;;12.48;100.00;100493.50;5160466;28;20040;-72
2022/11/01 01:28:43;;;;;;;73.60;37.42;;;;;;;12.59;100.00;100480.75;5158278;28;20049;-71
2022/11/01 01:31:14;;;;;;;75.88;38.92;;;;;;;12.68;100.00;100480.34;5160181;28;20030;-72
2022/11/01 01:33:44;;;;;;;78.22;39.70;;;;;;;12.78;100.00;100465.91;5161867;28;20437;-72
2022/11/01 01:36:14;;;;;;;80.40;39.88;;;;;;;12.82;100.00;100457.78;5154184;28;20034;-71
2022/11/01 01:38:44;;;;;;;81.82;39.67;;;;;;;12.87;100.00;100454.97;5154065;28;20029;-72
2022/11/01 01:45:02;;;;;;;72.10;37.38;;;;;;;12.84;100.00;100450.69;5138394;28;20117;-72
2022/11/01 01:47:39;;;;;;;71.05;36.65;;;;;;;12.84;100.00;100455.13;5158558;28;20022;-72
2022/11/01 01:50:15;;;;;;;75.25;38.10;;;;;;;12.76;100.00;100442.34;5160971;28;20117;-72
2022/11/01 01:53:04;;;;;;;74.40;37.58;;;;;;;12.73;100.00;100428.53;5161837;28;20041;-72
2022/11/01 01:55:50;;;;;;;82.55;38.78;;;;;;;12.77;100.00;100433.56;5158673;28;20022;-72
2022/11/01 01:58:23;;;;;;;71.03;37.27;;;;;;;12.76;100.00;100434.50;5161048;28;20428;-72
2022/11/01 02:00:54;;;;;;;68.88;36.72;;;;;;;12.78;100.00;100435.25;5158124;28;20038;-72
2022/11/01 02:03:29;;;;;;;63.55;35.72;;;;;;;12.75;100.00;100426.69;5159688;28;20044;-72
2022/11/01 02:06:09;;;;;;;;;;;;;;;12.74;100.00;100423.22;5162079;28;20033;-72
2022/11/01 02:08:46;;;;;;;64.32;36.10;;;;;;;12.66;100.00;100424.50;5160853;28;19961;-72
2022/11/01 02:11:18;;;;;;;71.57;36.40;;;;;;;12.60;100.00;100407.28;5161136;28;20030;-72
2022/11/01 02:13:48;;;;;;;68.20;35.50;;;;;;;12.57;100.00;100404.81;5161450;28;20317;-71
2022/11/01 02:16:32;;;;;;;67.68;35.80;;;;;;;12.54;100.00;100393.59;5161377;28;20527;-72
2022/11/01 02:19:40;;;;;;;69.18;35.78;;;;;;;12.56;100.00;100392.63;5158207;28;20087;-72
2022/11/01 02:22:19;;;;;;;65.63;33.85;;;;;;;12.57;100.00;100396.94;5159398;28;20030;-72
2022/11/01 02:25:09;;;;;;;66.85;34.70;;;;;;;12.51;100.00;100386.75;5159822;28;20053;-72
2022/11/01 02:27:55;;;;;;;62.78;34.45;;;;;;;12.56;100.00;100403.09;5159121;28;20037;-71
2022/11/01 02:30:40;;;;;;;60.80;33.47;;;;;;;12.41;100.00;100393.31;5157596;28;20627;-71
2022/11/01 02:33:23;;;;;;;55.92;32.67;;;;;;;12.47;100.00;100392.19;5159969;28;20069;-71
2022/11/01 02:36:19;;;;;;;59.92;33.33;;;;;;;12.42;100.00;100384.53;5157779;28;20496;-71
2022/11/01 02:39:00;;;;;;;57.20;33.60;;;;;;;12.37;100.00;100389.16;5160227;28;20446;-72
2022/11/01 02:41:54;;;;;;;57.58;33.42;;;;;;;12.38;100.00;100388.22;5157773;28;20061;-72
2022/11/01 02:44:27;;;;;;;63.63;33.90;;;;;;;12.34;100.00;100389.28;5157268;28;20031;-72
2022/11/01 02:47:01;;;;;;;61.28;33.47;;;;;;;12.40;100.00;100377.66;5160036;28;20105;-72
2022/11/01 02:49:41;;;;;;;59.72;32.33;;;;;;;12.35;100.00;100377.03;5160108;28;20030;-72
2022/11/01 02:52:24;;;;;;;60.85;33.65;;;;;;;12.47;100.00;100376.47;5159989;28;20138;-72
2022/11/01 02:54:59;;;;;;;61.10;34.20;;;;;;;12.43;100.00;100362.63;5157033;28;20439;-72
2022/11/01 02:57:36;;;;;;;58.53;33.15;;;;;;;12.55;100.00;100374.31;5159426;28;20040;-72
2022/11/01 03:00:36;;;;;;;61.53;33.50;;;;;;;12.44;100.00;100382.69;5158507;28;20037;-72
2022/11/01 03:03:30;;;;;;;63.50;34.42;;;;;;;12.45;100.00;100373.91;5197596;22;20148;-76
2022/11/01 03:06:11;;;;;;;72.40;36.17;;;;;;;12.49;100.00;100375.44;5194199;28;20021;-76
2022/11/01 03:08:53;;;;;;;69.28;37.17;;;;;;;12.48;100.00;100360.66;5199173;28;20050;-76
2022/11/01 03:11:37;;;;;;;67.25;36.65;;;;;;;12.57;100.00;100357.59;5196997;28;20029;-76
2022/11/01 03:14:40;;;;;;;61.10;35.90;;;;;;;12.50;100.00;100366.66;5178914;28;20022;-75
2022/11/01 03:17:14;;;;;;;65.30;36.22;;;;;;;12.61;100.00;100353.91;5178289;28;20063;-74
2022/11/01 03:20:08;;;;;;;62.20;34.50;;;;;;;12.58;100.00;100346.19;5178807;28;20053;-76
2022/11/01 03:22:56;;;;;;;59.53;33.90;;;;;;;12.62;100.00;100349.53;5176087;28;20508;-76
2022/11/01 03:25:38;;;;;;;63.40;33.53;;;;;;;12.65;100.00;100360.72;5177037;28;20022;-76
2022/11/01 03:28:27;;;;;;;63.53;32.97;;;;;;;12.58;100.00;100351.44;5179501;28;20111;-76
2022/11/01 03:31:12;;;;;;;61.50;33.67;;;;;;;12.53;100.00;100356.06;5176415;28;20018;-76
2022/11/01 03:33:47;;;;;;;57.47;32.83;;;;;;;12.47;100.00;100360.75;5178816;28;20044;-76
2022/11/01 03:36:21;;;;;;;58.88;33.13;;;;;;;12.48;100.00;100358.03;5178515;28;20030;-76
2022/11/01 03:38:56;;;;;;;58.38;32.55;;;;;;;12.43;100.00;100354.78;5174479;28;20396;-76
2022/11/01 03:41:32;;;;;;;56.63;32.20;;;;;;;12.44;100.00;100355.66;5180380;28;20036;-76
2022/11/01 03:44:03;;;;;;;54.65;32.08;;;;;;;12.40;100.00;100360.16;5180188;28;20523;-76
2022/11/01 03:46:34;;;;;;;53.92;32.20;;;;;;;12.51;100.00;100352.66;5161624;28;20057;-76
2022/11/01 03:49:04;;;;;;;54.95;32.78;;;;;;;12.60;100.00;100351.38;5179045;28;20532;-77
2022/11/01 03:51:34;;;;;;;54.45;31.67;;;;;;;12.56;100.00;100350.66;5177998;28;20041;-77
2022/11/01 03:54:09;;;;;;;52.00;31.05;;;;;;;12.57;100.00;100357.59;5178611;28;20057;-76
2022/11/01 03:56:40;;;;;;;57.00;33.03;;;;;;;12.49;100.00;100357.09;5178451;28;20034;-77
2022/11/01 03:59:10;;;;;;;55.30;33.22;;;;;;;12.56;100.00;100360.28;5178498;28;20061;-77
2022/11/01 04:01:40;;;;;;;57.28;32.80;;;;;;;12.53;100.00;100345.56;5177512;28;20724;-77
2022/11/01 04:04:11;;;;;;;53.33;32.50;;;;;;;12.58;100.00;100345.34;5179006;28;20034;-76
2022/11/01 04:06:41;;;;;;;56.55;33.53;;;;;;;12.60;100.00;100341.72;5179444;28;20030;-77
2022/11/01 04:09:11;;;;;;;60.85;35.40;;;;;;;12.59;100.00;100342.66;5179453;28;20025;-76
2022/11/01 04:11:42;;;;;;;63.17;34.65;;;;;;;12.61;100.00;100332.94;5178434;28;20141;-77
2022/11/01 04:22:39;;;;;;;58.30;35.13;;;;;;;12.62;100.00;100345.13;5177091;28;20176;-77
2022/11/01 04:25:09;;;;;;;61.65;35.88;;;;;;;12.59;100.00;100353.13;5178657;28;20237;-76
2022/11/01 04:27:39;;;;;;;66.60;36.20;;;;;;;12.57;100.00;100336.63;5176952;28;20025;-76
2022/11/01 04:30:10;;;;;;;60.58;35.95;;;;;;;12.60;100.00;100331.25;5176571;28;20038;-76
2022/11/01 04:32:43;;;;;;;61.50;35.05;;;;;;;12.58;100.00;100335.72;5178166;28;20242;-76
2022/11/01 04:35:14;;;;;;;60.08;34.58;;;;;;;12.55;100.00;100333.25;5178571;28;20117;-77
2022/11/01 04:37:44;;;;;;;64.53;35.80;;;;;;;12.58;100.00;100332.22;5178584;28;20176;-77
2022/11/01 04:40:15;;;;;;;65.88;36.28;;;;;;;12.52;100.00;100329.91;5178925;28;20018;-77
2022/11/01 04:42:45;;;;;;;60.22;34.65;;;;;;;12.60;100.00;100326.00;5178656;28;20076;-77
2022/11/01 04:45:15;;;;;;;56.85;33.92;;;;;;;12.62;100.00;100336.44;5179457;28;20061;-76
2022/11/01 04:47:52;;;;;;;56.88;33.88;;;;;;;12.57;100.00;100327.91;5179299;28;20032;-78
2022/11/01 04:50:22;;;;;;;56.13;34.17;;;;;;;12.69;100.00;100338.69;5177606;28;20495;-76
2022/11/01 04:52:52;;;;;;;55.33;33.58;;;;;;;12.66;100.00;100330.09;5177426;28;20030;-76
2022/11/01 04:55:23;;;;;;;51.13;32.05;;;;;;;12.56;100.00;100334.06;5173195;28;20022;-77
2022/11/01 04:57:53;;;;;;;54.83;32.67;;;;;;;12.68;100.00;100337.00;5172673;28;20061;-78
2022/11/01 05:00:25;;;;;;;57.17;34.00;;;;;;;12.55;100.00;100330.63;5177977;28;20473;-77
2022/11/01 05:03:02;;;;;;;57.13;33.10;;;;;;;12.59;100.00;100323.44;5178435;28;20037;-77
2022/11/01 05:05:34;;;;;;;52.53;31.42;;;;;;;12.65;100.00;100329.25;5177966;28;20083;-76
2022/11/01 05:08:06;;;;;;;51.03;31.05;;;;;;;12.61;100.00;100326.88;5178613;28;20037;-78
2022/11/01 05:10:40;;;;;;;49.10;30.98;;;;;;;12.60;100.00;100339.09;5180246;28;20096;-77
2022/11/01 05:13:12;;;;;;;48.20;31.63;;;;;;;12.59;100.00;100336.53;5183090;28;20025;-77
2022/11/01 05:15:42;;;;;;;51.10;30.15;;;;;;;12.69;100.00;100336.06;5182428;28;20084;-78
2022/11/01 05:18:12;;;;;;;53.85;30.55;;;;;;;12.62;100.00;100334.63;5180455;28;20041;-79
2022/11/01 05:20:43;;;;;;;49.47;30.67;;;;;;;12.51;100.00;100334.31;5182239;28;20475;-77
2022/11/01 05:23:13;;;;;;;48.65;29.73;;;;;;;12.61;100.00;100335.56;5181839;28;20033;-77
2022/11/01 05:25:43;;;;;;;48.17;29.63;;;;;;;12.60;100.00;100331.25;5182360;28;20090;-77
2022/11/01 05:28:14;;;;;;;49.13;30.75;;;;;;;12.57;100.00;100351.50;5181783;28;20537;-78
2022/11/01 05:30:44;;;;;;;44.40;29.02;;;;;;;12.67;100.00;100353.63;5182554;28;20030;-77
2022/11/01 05:33:14;;;;;;;44.72;28.65;;;;;;;12.70;100.00;100358.75;5182555;28;20049;-76
2022/11/01 05:35:44;;;;;;;42.15;27.35;;;;;;;12.71;100.00;100360.44;5182568;28;20112;-78
2022/11/01 05:38:15;;;;;;;39.58;26.15;;;;;;;12.69;100.00;100372.78;5181272;28;20033;-77
2022/11/01 05:40:45;;;;;;;43.60;29.05;;;;;;;12.65;100.00;100381.69;5182377;28;20456;-78
2022/11/01 05:43:16;;;;;;;46.00;29.17;;;;;;;12.65;100.00;100376.44;5181612;28;20052;-78
2022/11/01 05:45:46;;;;;;;48.53;29.65;;;;;;;12.56;100.00;100366.41;5182258;28;20659;-77
2022/11/01 05:48:16;;;;;;;43.17;28.00;;;;;;;12.55;100.00;100367.31;5177632;28;20369;-76
2022/11/01 05:50:46;;;;;;;42.80;28.27;;;;;;;12.61;100.00;100371.44;5181221;28;20072;-78
2022/11/01 05:53:17;;;;;;;43.67;28.35;;;;;;;12.61;100.00;100364.41;5177704;28;20124;-77
2022/11/01 05:55:47;;;;;;;40.40;26.13;;;;;;;12.65;100.00;100352.84;5181484;28;20030;-78
2022/11/01 05:58:17;;;;;;;44.92;27.30;;;;;;;12.65;100.00;100359.88;5181057;28;20030;-78
2022/11/01 06:00:48;;;;;;;43.58;27.67;;;;;;;12.72;100.00;100363.88;5179648;28;20036;-78
2022/11/01 06:03:18;;;;;;;40.40;27.02;;;;;;;12.59;100.00;100365.38;5181228;28;20032;-77
2022/11/01 06:05:48;;;;;;;44.03;27.85;;;;;;;12.55;100.00;100375.19;5181979;28;20017;-78
2022/11/01 06:08:19;;;;;;;42.05;27.65;;;;;;;12.72;100.00;100379.63;5181028;28;20467;-78
2022/11/01 06:10:49;;;;;;;36.90;26.00;;;;;;;12.71;100.00;100378.78;5182195;28;20068;-77
2022/11/01 06:13:19;;;;;;;46.17;28.25;;;;;;;12.60;100.00;100386.31;5181142;28;20025;-78
2022/11/01 06:15:56;;;;;;;41.55;26.98;;;;;;;12.63;100.00;100391.41;5179813;28;20041;-77
2022/11/01 06:18:27;;;;;;;41.10;27.00;;;;;;;12.64;100.00;100387.84;5177713;28;20022;-78
2022/11/01 06:20:58;;;;;;;39.42;26.35;;;;;;;12.63;100.00;100386.16;5179127;28;20026;-78
2022/11/01 06:23:28;;;;;;;39.63;26.13;;;;;;;12.60;100.00;100388.09;5181302;28;20113;-78
2022/11/01 06:26:02;;;;;;;38.75;25.88;;;;;;;12.57;100.00;100389.06;5179498;28;20029;-78
2022/11/01 06:28:33;;;;;;;39.72;25.77;;;;;;;12.64;100.00;100390.47;5179379;28;20404;-78
2022/11/01 06:31:03;;;;;;;38.95;25.65;;;;;;;12.62;100.00;100396.72;5176394;28;20034;-77
2022/11/01 06:33:34;;;;;;;39.47;26.02;;;;;;;12.56;100.00;100405.72;5178995;28;20080;-78
2022/11/01 06:36:05;;;;;;;38.33;25.70;;;;;;;12.67;100.00;100408.69;5179628;28;20080;-75
2022/11/01 06:38:35;;;;;;;36.72;24.13;;;;;;;12.67;100.00;100403.44;5175259;28;20362;-78
2022/11/01 06:41:06;;;;;;;37.38;23.73;;;;;;;12.76;100.00;100413.50;5180201;28;20018;-77
2022/11/01 06:43:36;;;;;;;34.95;22.35;;;;;;;12.75;100.00;100409.19;5180317;28;20128;-76
2022/11/01 06:46:06;;;;;;;35.83;22.05;;;;;;;12.80;100.00;100408.97;5182451;28;20088;-75
2022/11/01 06:48:37;;;;;;;30.77;20.63;;;;;;;12.87;100.00;100400.75;5182252;28;20034;-76
2022/11/01 06:51:07;;;;;;;30.75;21.50;;;;;;;12.96;100.00;100404.75;5182130;28;20506;-77
2022/11/01 06:53:37;;;;;;;33.83;20.33;;;;;;;12.98;100.00;100404.59;5182850;28;20391;-76
2022/11/01 06:56:08;;;;;;;32.90;20.63;;;;;;;13.04;100.00;100406.06;5182754;28;20363;-77
2022/11/01 06:58:38;;;;;;;30.00;19.65;;;;;;;13.00;100.00;100400.09;5180649;28;20116;-77
2022/11/01 07:01:08;;;;;;;28.50;19.80;;;;;;;12.96;100.00;100399.50;5181414;28;20261;-75
2022/11/01 07:03:39;;;;;;;28.73;19.00;;;;;;;12.99;100.00;100398.41;5182555;28;20080;-77
2022/11/01 07:06:09;;;;;;;29.02;18.50;;;;;;;13.02;100.00;100402.63;5181864;28;20033;-77
2022/11/01 07:08:39;;;;;;;26.75;17.88;;;;;;;13.05;100.00;100407.78;5181581;28;20025;-77
2022/11/01 07:11:10;;;;;;;24.73;16.80;;;;;;;13.12;100.00;100412.66;5181553;28;20032;-78
2022/11/01 07:13:40;;;;;;;26.27;15.93;;;;;;;13.21;100.00;100421.84;5180409;28;20704;-77
2022/11/01 07:16:10;;;;;;;26.63;15.65;;;;;;;13.37;100.00;100428.06;5180265;28;20041;-77
2022/11/01 07:18:41;;;;;;;22.52;14.95;;;;;;;13.34;100.00;100434.28;5179706;28;20456;-77
2022/11/01 07:21:11;;;;;;;23.38;16.30;;;;;;;13.29;100.00;100419.69;5178642;28;20045;-78
2022/11/01 07:23:41;;;;;;;27.63;17.40;;;;;;;13.23;100.00;100426.06;5178506;28;21378;-77
2022/11/01 07:26:12;;;;;;;24.38;17.20;;;;;;;13.29;100.00;100430.19;5177667;28;20048;-76
2022/11/01 07:28:42;;;;;;;25.60;16.70;;;;;;;13.22;100.00;100439.28;5177563;28;20037;-77
2022/11/01 07:31:12;;;;;;;23.70;16.27;;;;;;;13.37;100.00;100430.69;5176391;28;20029;-77
2022/11/01 07:33:43;;;;;;;27.08;15.20;;;;;;;13.40;100.00;100435.78;5177614;28;20029;-78
2022/11/01 07:36:13;;;;;;;19.75;12.88;;;;;;;13.49;100.00;100438.78;5178212;28;20104;-77
2022/11/01 07:38:43;;;;;;;15.10;9.63;;;;;;;13.75;100.00;100432.22;5177475;28;20042;-77
2022/11/01 07:41:13;;;;;;;15.40;8.40;;;;;;;13.91;100.00;100433.16;5178369;28;20584;-77
2022/11/01 07:43:44;;;;;;;12.70;7.65;;;;;;;14.04;100.00;100445.56;5179566;28;20391;-76
2022/11/01 07:46:14;;;;;;;16.10;7.05;;;;;;;14.24;100.00;100434.06;5180132;28;20025;-76
2022/11/01 07:48:44;;;;;;;14.90;7.05;;;;;;;14.50;100.00;100438.78;5177640;28;20030;-76
2022/11/01 07:51:15;;;;;;;13.82;5.90;;;;;;;14.78;100.00;100441.63;5180018;28;20136;-78
2022/11/01 07:53:45;;;;;;;12.57;5.30;;;;;;;14.81;100.00;100444.06;5180510;28;20030;-78
2022/11/01 07:56:15;;;;;;;11.18;5.30;;;;;;;15.00;100.00;100435.09;5179996;28;20026;-77
2022/11/01 07:58:46;;;;;;;11.65;4.93;;;;;;;15.00;100.00;100440.34;5178523;28;20026;-77
2022/11/01 08:01:16;;;;;;;14.35;5.55;;;;;;;15.10;100.00;100439.75;5178341;28;20034;-77
2022/11/01 08:03:48;;;;;;;10.73;4.88;;;;;;;15.12;100.00;100445.78;5179315;28;20036;-76
2022/11/01 08:06:18;;;;;;;11.63;5.20;;;;;;;15.23;100.00;100448.66;5179473;28;20065;-76
2022/11/01 08:08:48;;;;;;;11.05;4.38;;;;;;;15.29;100.00;100458.88;5179521;28;20026;-76
2022/11/01 08:11:18;;;;;;;13.27;4.80;;;;;;;15.35;100.00;100450.63;5178337;28;20459;-77
2022/11/01 08:13:49;;;;;;;12.90;4.68;;;;;;;15.38;100.00;100458.34;5178180;28;20105;-78
2022/11/01 08:16:19;;;;;;;13.52;4.57;;;;;;;15.41;100.00;100450.28;5177765;28;20065;-76
2022/11/01 08:18:49;;;;;;;9.88;3.97;;;;;;;15.53;100.00;100456.63;5179450;28;20033;-77
2022/11/01 08:21:20;;;;;;;12.75;4.43;;;;;;;15.65;100.00;100461.19;5179233;28;20484;-77
2022/11/01 08:23:50;;;;;;;10.18;4.22;;;;;;;15.63;100.00;100456.00;5179697;28;20472;-77
2022/11/01 08:26:20;;;;;;;12.40;4.22;;;;;;;15.68;100.00;100467.13;5179242;28;20030;-77
2022/11/01 08:28:51;;;;;;;9.02;3.97;;;;;;;15.68;100.00;100475.03;5179237;28;20017;-76
2022/11/01 08:31:21;;;;;;;7.88;3.92;;;;;;;15.63;100.00;100482.34;5179829;28;20079;-78
2022/11/01 08:33:53;;;;;;;13.13;4.53;;;;;;;15.65;100.00;100484.88;5179598;28;20056;-77
2022/11/01 08:36:23;;;;;;;11.25;3.85;;;;;;;15.71;100.00;100487.19;5174189;28;20069;-76
2022/11/01 08:38:53;;;;;;;9.60;3.85;;;;;;;15.77;100.00;100492.97;5178813;28;20518;-77
2022/11/01 08:41:23;;;;;;;10.95;3.90;;;;;;;15.80;100.00;100495.41;5179448;28;20025;-77
2022/11/01 08:43:56;;;;;;;10.90;4.15;;;;;;;15.88;100.00;100493.16;5179909;28;20032;-77
2022/11/01 08:46:26;;;;;;;9.55;4.00;;;;;;;15.98;100.00;100496.97;5178464;28;20428;-75
2022/11/01 08:48:59;;;;;;;10.55;4.03;;;;;;;16.07;100.00;100495.56;5182623;28;20022;-77
2022/11/01 08:51:31;;;;;;;11.00;3.85;;;;;;;16.15;100.00;100494.19;5183193;28;20034;-77
2022/11/01 08:54:02;;;;;;;6.47;3.45;;;;;;;16.31;100.00;100496.75;5183563;28;20060;-77
2022/11/01 08:56:32;;;;;;;11.57;4.05;;;;;;;16.32;100.00;100495.81;5181690;28;20062;-77
2022/11/01 08:59:03;;;;;;;15.27;4.03;;;;;;;16.33;100.00;100495.72;5183551;28;20034;-77
2022/11/01 09:01:33;;;;;;;6.95;3.70;;;;;;;16.40;100.00;100507.63;5182802;28;20036;-76
2022/11/01 09:04:04;;;;;;;9.07;3.53;;;;;;;16.33;100.00;100503.63;5221776;22;20056;-72
2022/11/01 09:06:34;;;;;;;8.20;3.40;;;;;;;16.31;100.00;100502.00;5201016;28;20032;-72
2022/11/01 09:09:05;;;;;;;10.35;3.75;;;;;;;16.22;100.00;100516.59;5203351;28;20029;-72
2022/11/01 09:11:35;;;;;;;8.55;3.70;;;;;;;16.21;100.00;100512.28;5203604;28;20471;-72
2022/11/01 09:14:05;;;;;;;8.77;3.83;;;;;;;16.31;100.00;100513.44;5195150;28;20041;-72
2022/11/01 09:16:36;;;;;;;8.40;3.72;;;;;;;16.37;100.00;100507.81;5192404;28;20533;-72
2022/11/01 09:19:06;;;;;;;12.43;3.95;;;;;;;16.35;100.00;100514.13;5188940;28;20036;-73
2022/11/01 09:21:37;;;;;;;9.20;3.88;;;;;;;16.40;100.00;100518.16;5190694;28;20034;-72
2022/11/01 09:24:08;;;;;;;11.73;3.63;;;;;;;16.55;100.00;100501.41;5193061;28;20033;-72
2022/11/01 09:26:39;;;;;;;9.40;3.65;;;;;;;16.64;100.00;100507.91;5192733;28;20026;-72
2022/11/01 09:29:09;;;;;;;10.60;3.85;;;;;;;16.53;100.00;100511.22;5192278;28;20041;-73
2022/11/01 09:31:40;;;;;;;10.35;3.47;;;;;;;16.63;100.00;100516.78;5193095;28;20053;-72
2022/11/01 09:34:10;;;;;;;8.57;3.40;;;;;;;16.62;100.00;100521.22;5190596;28;20029;-72
2022/11/01 09:36:41;;;;;;;13.48;3.92;;;;;;;16.60;100.00;100522.25;5191948;28;20499;-72
2022/11/01 09:39:15;;;;;;;9.43;3.33;;;;;;;16.67;100.00;100529.72;5191912;28;20038;-72
2022/11/01 09:41:50;;;;;;;10.35;3.30;;;;;;;16.62;100.00;100520.38;5193454;28;20025;-72
2022/11/01 09:44:42;;;;;;;7.70;3.55;;;;;;;16.71;100.00;100523.28;5190758;28;20087;-72
2022/11/01 09:47:19;;;;;;;7.85;3.45;;;;;;;16.76;100.00;100523.00;5191148;28;20030;-72
2022/11/01 09:50:17;;;;;;;7.82;3.53;;;;;;;16.84;100.00;100519.78;5184618;28;20458;-72
2022/11/01 09:52:53;;;;;;;10.88;3.65;;;;;;;16.89;100.00;100522.16;5188413;28;20025;-73
2022/11/01 09:55:49;;;;;;;11.73;3.40;;;;;;;16.83;100.00;100519.91;5184723;28;20137;-72
2022/11/01 09:59:00;;;;;;;10.90;3.55;;;;;;;16.91;100.00;100528.19;5186321;28;20041;-73
2022/11/01 10:01:39;;;;;;;9.73;3.55;;;;;;;17.04;100.00;100522.06;5187896;28;20058;-72
2022/11/01 10:04:38;;;;;;;7.65;3.17;;;;;;;17.28;100.00;100533.72;5191501;28;20482;-73
2022/11/01 10:07:18;;;;;;;15.50;3.25;;;;;;;17.40;100.00;100540.03;5190208;28;20026;-72
2022/11/01 10:09:57;;;;;;;7.65;2.92;;;;;;;17.66;100.00;100533.94;5188677;28;20045;-73
2022/11/01 10:12:36;;;;;;;9.45;3.20;;;;;;;17.93;100.00;100532.97;5187507;28;20164;-71
2022/11/01 10:15:34;;;;;;;9.10;2.80;;;;;;;18.00;100.00;100542.19;5191921;28;20041;-72
2022/11/01 10:18:28;;;;;;;7.50;3.05;;;;;;;17.96;100.00;100547.75;5186697;28;20449;-72
2022/11/01 10:21:03;;;;;;;7.43;2.75;;;;;;;17.92;100.00;100557.72;5186833;28;20029;-71
2022/11/01 10:23:45;;;;;;;10.10;3.40;;;;;;;17.91;100.00;100563.09;5191375;28;20029;-72
2022/11/01 10:26:24;;;;;;;5.38;3.08;;;;;;;17.71;100.00;100567.06;5188295;28;20061;-73
2022/11/01 10:29:21;;;;;;;7.43;3.13;;;;;;;17.76;100.00;100569.38;5183500;28;20484;-73
2022/11/01 10:31:53;;;;;;;12.23;3.55;;;;;;;17.69;100.00;100581.31;5192204;28;20029;-73
2022/11/01 10:34:28;;;;;;;10.02;3.13;;;;;;;17.68;100.00;100579.63;5186885;28;20026;-73
2022/11/01 10:37:17;;;;;;;9.65;3.35;;;;;;;17.75;100.00;100586.19;5191611;28;20074;-72
2022/11/01 10:39:59;;;;;;;9.68;3.10;;;;;;;17.59;100.00;100588.13;5189309;28;20605;-73
2022/11/01 10:42:31;;;;;;;14.32;4.00;;;;;;;17.60;100.00;100587.19;5186377;28;20468;-73
2022/11/01 10:45:07;;;;;;;12.48;3.78;;;;;;;17.45;100.00;100593.47;5190394;28;20061;-73
2022/11/01 10:47:37;;;;;;;10.07;3.00;;;;;;;17.51;100.00;100585.13;5183917;28;20026;-73
2022/11/01 10:50:11;;;;;;;10.35;3.30;;;;;;;17.59;100.00;100580.19;5184909;28;20037;-73
2022/11/01 10:52:48;;;;;;;9.93;3.10;;;;;;;17.68;100.00;100579.63;5189526;28;20036;-73
2022/11/01 10:55:47;;;;;;;8.07;3.42;;;;;;;17.71;100.00;100568.84;5187105;28;20041;-72
2022/11/01 10:58:25;;;;;;;11.07;3.20;;;;;;;17.62;100.00;100582.66;5182685;28;20510;-72
2022/11/01 11:00:55;;;;;;;13.10;3.42;;;;;;;17.64;100.00;100580.78;5182202;28;20037;-73
2022/11/01 11:03:29;;;;;;;7.75;2.88;;;;;;;17.71;100.00;100579.41;5183109;28;20038;-72
2022/11/01 11:06:05;;;;;;;7.10;3.17;;;;;;;17.68;99.60;100577.81;5183851;28;20409;-73
2022/11/01 11:08:37;;;;;;;;;;;;;;;17.60;100.00;100573.97;5184904;28;20038;-73
2022/11/01 11:11:13;;;;;;;7.05;2.60;;;;;;;17.67;99.79;100575.28;5184022;28;20267;-73
2022/11/01 11:13:49;;;;;;;10.10;2.90;;;;;;;17.80;99.29;100573.53;5183285;28;20037;-73
2022/11/01 11:16:30;;;;;;;10.63;2.83;;;;;;;17.83;98.25;100573.34;5183151;28;20038;-73
2022/11/01 11:19:06;;;;;;;8.15;2.80;;;;;;;17.87;100.00;100582.75;5182947;28;20034;-73
2022/11/01 11:21:36;;;;;;;8.65;2.80;;;;;;;17.91;99.11;100585.13;5183141;28;20121;-73
2022/11/01 11:24:18;;;;;;;8.23;2.67;;;;;;;17.94;97.53;100581.41;5183472;28;20049;-73
2022/11/01 11:26:51;;;;;;;7.22;2.58;;;;;;;17.99;97.30;100595.19;5183741;28;20029;-73
2022/11/01 11:29:48;;;;;;;8.30;2.38;;;;;;;18.10;97.77;100597.97;5181958;28;20033;-72
2022/11/01 11:32:21;;;;;;;8.35;2.22;;;;;;;17.99;95.90;100592.56;5183003;28;20476;-72
2022/11/01 11:34:55;;;;;;;7.50;2.60;;;;;;;18.00;95.55;100607.47;5185256;28;20037;-72
2022/11/01 11:37:31;;;;;;;5.97;2.55;;;;;;;17.85;94.92;100603.19;5180948;28;20124;-72
2022/11/01 11:40:23;;;;;;;7.88;2.65;;;;;;;17.86;94.77;100594.28;5184394;28;20049;-72
2022/11/01 11:43:15;;;;;;;5.97;2.60;;;;;;;17.90;95.94;100595.78;5182576;28;20029;-73
2022/11/01 11:46:03;;;;;;;7.15;2.47;;;;;;;18.06;95.59;100596.47;5183917;28;20022;-73
2022/11/01 11:48:45;;;;;;;8.50;2.65;;;;;;;18.35;94.62;100598.09;5184722;28;20258;-73
2022/11/01 11:51:15;;;;;;;7.82;2.50;;;;;;;18.42;92.81;100599.34;5183033;28;20034;-73